Time;durP1;ratioP1;P1;durP2;ratioP2;P2;SDS_P1;SDS_P2;PMS_P1;PMS_P2;Temp;Humidity;BMP_temperature;BMP_pressure;BME280_temperature;BME280_humidity;BME280_pressure;Samples;Min_cycle;Max_cycle;Signal;HPM_P1;HPM_P2
2021/09/17 00:01:54;;;;;;;9.65;8.63;;;;;;;;;;5095673;28;20020;-78
2021/09/17 00:04:20;;;;;;;9.35;8.32;;;;;;;;;;5095087;28;20023;-78
2021/09/17 00:06:46;;;;;;;9.55;8.65;;;;;;;;;;5095444;28;20465;-76
2021/09/17 00:09:14;;;;;;;7.93;7.13;;;;;;;;;;5094632;28;20025;-76
2021/09/17 00:11:40;;;;;;;9.80;7.78;;;;;;;;;;5094607;28;20028;-76
2021/09/17 00:14:06;;;;;;;8.50;7.60;;;;;;;;;;5094560;28;20016;-76
2021/09/17 00:16:32;;;;;;;9.57;8.60;;;;;;;;;;5094605;28;20134;-75
2021/09/17 00:18:58;;;;;;;8.30;7.53;;;;;;;;;;5094411;28;20036;-77
2021/09/17 00:21:24;;;;;;;9.13;8.23;;;;;;;;;;5097664;28;20024;-75
2021/09/17 00:23:51;;;;;;;9.40;8.50;;;;;;;;;;5098112;28;20024;-75
2021/09/17 00:26:17;;;;;;;9.80;8.70;;;;;;;;;;5098269;28;20484;-76
2021/09/17 00:28:43;;;;;;;8.00;6.82;;;;;;;;;;5097930;28;20122;-75
2021/09/17 00:31:09;;;;;;;7.88;7.07;;;;;;;;;;5097925;28;20027;-75
2021/09/17 00:33:35;;;;;;;7.93;7.13;;;;;;;;;;5097353;28;20127;-75
2021/09/17 00:36:02;;;;;;;7.93;7.00;;;;;;;;;;5097794;28;20478;-75
2021/09/17 00:38:28;;;;;;;7.63;6.68;;;;;;;;;;5098022;28;20081;-75
2021/09/17 00:40:54;;;;;;;7.60;7.00;;;;;;;;;;5097634;28;20023;-76
2021/09/17 00:43:20;;;;;;;7.65;6.60;;;;;;;;;;5097727;28;20028;-75
2021/09/17 00:45:47;;;;;;;14.07;7.45;;;;;;;;;;5097461;28;20469;-75
2021/09/17 00:48:13;;;;;;;8.18;7.35;;;;;;;;;;5097240;28;20053;-76
2021/09/17 00:50:39;;;;;;;9.63;8.73;;;;;;;;;;5097591;28;20030;-76
2021/09/17 00:53:05;;;;;;;7.55;6.95;;;;;;;;;;5097951;28;20034;-75
2021/09/17 00:55:32;;;;;;;7.80;7.10;;;;;;;;;;5097217;28;20112;-75
2021/09/17 00:58:01;;;;;;;10.75;8.23;;;;;;;;;;5097176;28;20032;-75
2021/09/17 01:00:27;;;;;;;9.13;6.65;;;;;;;;;;5096933;28;20028;-76
2021/09/17 01:02:53;;;;;;;17.80;8.07;;;;;;;;;;5097424;28;20082;-76
2021/09/17 01:05:19;;;;;;;10.85;6.53;;;;;;;;;;5097342;28;20038;-76
2021/09/17 01:07:45;;;;;;;8.00;7.20;;;;;;;;;;5097225;28;20028;-75
2021/09/17 01:10:12;;;;;;;7.75;6.95;;;;;;;;;;5096739;28;20031;-75
2021/09/17 01:12:38;;;;;;;9.25;6.97;;;;;;;;;;5097193;28;20032;-76
2021/09/17 01:15:05;;;;;;;8.88;6.93;;;;;;;;;;5096960;28;20024;-75
2021/09/17 01:17:32;;;;;;;7.18;6.55;;;;;;;;;;5096523;28;20024;-75
2021/09/17 01:19:58;;;;;;;7.75;6.88;;;;;;;;;;5096914;28;20028;-75
2021/09/17 01:22:24;;;;;;;7.72;6.93;;;;;;;;;;5096586;28;20097;-76
2021/09/17 01:24:50;;;;;;;8.07;6.70;;;;;;;;;;5097669;28;20089;-76
2021/09/17 01:27:16;;;;;;;7.95;7.15;;;;;;;;;;5097269;28;20469;-75
2021/09/17 01:29:42;;;;;;;7.55;6.85;;;;;;;;;;5097128;28;20073;-75
2021/09/17 01:32:08;;;;;;;7.50;6.40;;;;;;;;;;5095799;28;20016;-76
2021/09/17 01:34:34;;;;;;;7.32;6.63;;;;;;;;;;5097112;28;20606;-76
2021/09/17 01:37:00;;;;;;;6.13;5.63;;;;;;;;;;5096517;28;20040;-76
2021/09/17 01:39:27;;;;;;;7.30;6.50;;;;;;;;;;5096745;28;20028;-75
2021/09/17 01:41:53;;;;;;;6.68;5.97;;;;;;;;;;5096156;28;20490;-75
2021/09/17 01:44:19;;;;;;;6.32;5.82;;;;;;;;;;5096624;28;20046;-75
2021/09/17 01:46:45;;;;;;;7.03;6.30;;;;;;;;;;5095839;28;20035;-76
2021/09/17 01:49:11;;;;;;;7.53;6.63;;;;;;;;;;5096519;28;20047;-76
2021/09/17 01:51:37;;;;;;;7.65;5.97;;;;;;;;;;5096134;28;20039;-76
2021/09/17 01:54:04;;;;;;;6.90;6.20;;;;;;;;;;5096004;28;20031;-75
2021/09/17 01:56:30;;;;;;;6.47;5.88;;;;;;;;;;5095510;28;20501;-75
2021/09/17 01:58:57;;;;;;;8.40;6.30;;;;;;;;;;5096331;28;20026;-75
2021/09/17 02:01:23;;;;;;;8.00;7.30;;;;;;;;;;5095818;28;20024;-75
2021/09/17 02:03:49;;;;;;;7.40;6.30;;;;;;;;;;5095755;28;20020;-75
2021/09/17 02:06:20;;;;;;;7.65;6.13;;;;;;;;;;5095815;28;20100;-76
2021/09/17 02:08:46;;;;;;;6.13;5.53;;;;;;;;;;5096245;28;20020;-75
2021/09/17 02:11:12;;;;;;;8.10;6.78;;;;;;;;;;5095701;28;20056;-75
2021/09/17 02:13:38;;;;;;;6.93;6.05;;;;;;;;;;5095689;28;20024;-75
2021/09/17 02:16:04;;;;;;;6.47;5.90;;;;;;;;;;5094936;28;20044;-75
2021/09/17 02:18:30;;;;;;;6.15;5.55;;;;;;;;;;5096210;28;20027;-75
2021/09/17 02:20:56;;;;;;;7.07;6.47;;;;;;;;;;5095790;28;20020;-75
2021/09/17 02:23:22;;;;;;;7.53;6.68;;;;;;;;;;5096119;28;20028;-75
2021/09/17 02:25:48;;;;;;;10.18;5.47;;;;;;;;;;5095526;28;20480;-75
2021/09/17 02:28:14;;;;;;;5.88;5.38;;;;;;;;;;5095322;28;20020;-75
2021/09/17 02:30:40;;;;;;;9.20;4.93;;;;;;;;;;5095419;28;20461;-75
2021/09/17 02:33:07;;;;;;;4.78;4.35;;;;;;;;;;5095345;28;20044;-75
2021/09/17 02:35:33;;;;;;;9.32;4.18;;;;;;;;;;5095815;28;20028;-75
2021/09/17 02:37:59;;;;;;;7.35;4.25;;;;;;;;;;5095133;28;20040;-75
2021/09/17 02:40:25;;;;;;;4.63;4.22;;;;;;;;;;5095311;28;20377;-75
2021/09/17 02:42:51;;;;;;;5.97;5.45;;;;;;;;;;5094700;28;20385;-75
2021/09/17 02:45:17;;;;;;;5.82;4.15;;;;;;;;;;5095051;28;20077;-75
2021/09/17 02:47:43;;;;;;;3.70;3.40;;;;;;;;;;5094989;28;20031;-75
2021/09/17 02:50:10;;;;;;;4.03;3.65;;;;;;;;;;5095095;28;20024;-76
2021/09/17 02:52:36;;;;;;;4.65;3.53;;;;;;;;;;5095181;28;20416;-75
2021/09/17 02:55:02;;;;;;;3.83;3.42;;;;;;;;;;5094751;28;20043;-76
2021/09/17 02:57:28;;;;;;;3.53;3.22;;;;;;;;;;5094909;28;20385;-75
2021/09/17 02:59:54;;;;;;;3.78;3.45;;;;;;;;;;5094911;28;20103;-74
2021/09/17 03:02:20;;;;;;;4.47;4.00;;;;;;;;;;5095683;28;20027;-77
2021/09/17 03:04:46;;;;;;;4.50;3.60;;;;;;;;;;5095179;28;20415;-75
2021/09/17 03:07:12;;;;;;;4.47;3.15;;;;;;;;;;5095834;28;20020;-75
2021/09/17 03:09:38;;;;;;;3.58;3.15;;;;;;;;;;5095028;28;20027;-75
2021/09/17 03:12:05;;;;;;;3.17;2.88;;;;;;;;;;5094757;28;20067;-75
2021/09/17 03:14:31;;;;;;;3.15;2.85;;;;;;;;;;5094747;28;20024;-75
2021/09/17 03:16:57;;;;;;;5.18;3.22;;;;;;;;;;5095362;28;20040;-74
2021/09/17 03:19:23;;;;;;;8.10;3.88;;;;;;;;;;5094726;28;20032;-75
2021/09/17 03:21:49;;;;;;;5.13;3.42;;;;;;;;;;5094494;28;20457;-75
2021/09/17 03:24:15;;;;;;;8.43;3.22;;;;;;;;;;5094403;28;20047;-75
2021/09/17 03:26:41;;;;;;;3.35;2.80;;;;;;;;;;5093395;28;20105;-75
2021/09/17 03:29:07;;;;;;;2.33;2.08;;;;;;;;;;5094223;28;20024;-75
2021/09/17 03:31:33;;;;;;;2.95;2.50;;;;;;;;;;5095003;28;20097;-75
2021/09/17 03:34:00;;;;;;;2.78;2.50;;;;;;;;;;5094226;28;20020;-74
2021/09/17 03:36:26;;;;;;;2.72;2.50;;;;;;;;;;5094707;28;20499;-75
2021/09/17 03:38:53;;;;;;;2.70;2.33;;;;;;;;;;5094294;28;20047;-75
2021/09/17 03:41:19;;;;;;;3.20;2.60;;;;;;;;;;5094309;28;20142;-75
2021/09/17 03:43:45;;;;;;;3.10;2.67;;;;;;;;;;5094234;28;20024;-75
2021/09/17 03:46:11;;;;;;;5.47;2.35;;;;;;;;;;5094342;28;20474;-75
2021/09/17 03:48:37;;;;;;;2.88;2.53;;;;;;;;;;5094699;28;20020;-75
2021/09/17 03:51:03;;;;;;;2.55;2.35;;;;;;;;;;5094364;28;20077;-75
2021/09/17 03:53:29;;;;;;;2.38;2.17;;;;;;;;;;5094629;28;20469;-75
2021/09/17 03:55:55;;;;;;;2.63;2.42;;;;;;;;;;5096710;28;20543;-75
2021/09/17 03:58:21;;;;;;;4.28;2.10;;;;;;;;;;5098109;28;20020;-75
2021/09/17 04:00:48;;;;;;;2.83;2.40;;;;;;;;;;5098529;28;20020;-76
2021/09/17 04:03:14;;;;;;;4.95;1.70;;;;;;;;;;5097988;28;20073;-75
2021/09/17 04:05:40;;;;;;;2.42;2.00;;;;;;;;;;5097874;28;20496;-75
2021/09/17 04:08:06;;;;;;;2.88;1.90;;;;;;;;;;5097677;28;20020;-75
2021/09/17 04:10:32;;;;;;;2.38;2.17;;;;;;;;;;5097682;28;20032;-75
2021/09/17 04:12:58;;;;;;;4.53;2.22;;;;;;;;;;5097186;28;20026;-75
2021/09/17 04:15:24;;;;;;;2.35;1.90;;;;;;;;;;5097878;28;20097;-75
2021/09/17 04:17:50;;;;;;;2.22;1.90;;;;;;;;;;5097800;28;20043;-75
2021/09/17 04:20:16;;;;;;;3.28;2.80;;;;;;;;;;5097367;28;20035;-75
2021/09/17 04:22:42;;;;;;;2.78;1.90;;;;;;;;;;5097652;28;20101;-75
2021/09/17 04:25:09;;;;;;;2.72;2.05;;;;;;;;;;5098215;28;20051;-76
2021/09/17 04:27:35;;;;;;;1.73;1.60;;;;;;;;;;5097716;28;20023;-78
2021/09/17 04:30:04;;;;;;;1.73;1.42;;;;;;;;;;5098123;28;20381;-76
2021/09/17 04:32:30;;;;;;;1.95;1.65;;;;;;;;;;5098285;28;20094;-77
2021/09/17 04:34:56;;;;;;;2.65;1.95;;;;;;;;;;5098030;28;20083;-77
2021/09/17 04:37:22;;;;;;;1.83;1.65;;;;;;;;;;5098303;28;20040;-77
2021/09/17 04:39:48;;;;;;;2.38;1.75;;;;;;;;;;5098302;28;20111;-77
2021/09/17 04:42:14;;;;;;;1.60;1.50;;;;;;;;;;5097907;28;20016;-79
2021/09/17 04:44:41;;;;;;;2.28;2.08;;;;;;;;;;5095457;28;20496;-77
2021/09/17 04:47:07;;;;;;;1.95;1.75;;;;;;;;;;5095779;28;20031;-78
2021/09/17 04:49:33;;;;;;;1.90;1.70;;;;;;;;;;5094870;28;20486;-78
2021/09/17 04:51:59;;;;;;;2.20;1.70;;;;;;;;;;5095945;28;20111;-79
2021/09/17 04:54:25;;;;;;;2.65;1.85;;;;;;;;;;5096641;28;20094;-76
2021/09/17 04:56:51;;;;;;;2.15;1.70;;;;;;;;;;5095951;28;20044;-77
2021/09/17 04:59:17;;;;;;;3.92;1.73;;;;;;;;;;5096839;28;20366;-77
2021/09/17 05:01:43;;;;;;;4.38;1.63;;;;;;;;;;5096123;28;20165;-78
2021/09/17 05:04:09;;;;;;;3.97;2.60;;;;;;;;;;5095757;28;20024;-80
2021/09/17 05:06:35;;;;;;;2.42;2.10;;;;;;;;;;5095112;28;20032;-80
2021/09/17 05:09:01;;;;;;;4.60;2.65;;;;;;;;;;5095895;28;20020;-78
2021/09/17 05:11:27;;;;;;;5.10;2.30;;;;;;;;;;5095805;28;20355;-81
2021/09/17 05:13:54;;;;;;;5.10;2.45;;;;;;;;;;5095993;28;20481;-82
2021/09/17 05:16:20;;;;;;;19.10;3.72;;;;;;;;;;5096112;28;20358;-83
2021/09/17 05:18:46;;;;;;;3.40;2.00;;;;;;;;;;5095897;28;20081;-81
2021/09/17 05:21:12;;;;;;;7.13;2.60;;;;;;;;;;5096019;28;20049;-83
2021/09/17 05:23:40;;;;;;;4.03;2.50;;;;;;;;;;5095761;28;20024;-78
2021/09/17 05:26:06;;;;;;;9.07;2.90;;;;;;;;;;5095152;28;20031;-80
2021/09/17 05:28:32;;;;;;;33.13;2.53;;;;;;;;;;5095187;28;20028;-75
2021/09/17 05:30:58;;;;;;;12.85;1.70;;;;;;;;;;5095527;28;20350;-77
2021/09/17 05:33:24;;;;;;;5.90;2.00;;;;;;;;;;5095313;28;20023;-76
2021/09/17 05:35:50;;;;;;;2.95;1.83;;;;;;;;;;5094977;28;20043;-78
2021/09/17 05:38:16;;;;;;;14.45;2.75;;;;;;;;;;5095234;28;20068;-81
2021/09/17 05:40:42;;;;;;;3.25;1.90;;;;;;;;;;5095158;28;20024;-83
2021/09/17 05:43:09;;;;;;;7.50;2.30;;;;;;;;;;5094234;28;20032;-75
2021/09/17 05:45:35;;;;;;;6.28;2.65;;;;;;;;;;5094893;28;20020;-75
2021/09/17 05:48:01;;;;;;;6.25;2.47;;;;;;;;;;5094951;28;20066;-76
2021/09/17 05:50:27;;;;;;;5.25;2.70;;;;;;;;;;5095041;28;20093;-75
2021/09/17 05:52:53;;;;;;;5.05;1.83;;;;;;;;;;5094995;28;20047;-74
2021/09/17 05:55:20;;;;;;;2.25;1.63;;;;;;;;;;5094658;28;20430;-75
2021/09/17 05:57:46;;;;;;;2.05;1.80;;;;;;;;;;5094982;28;20046;-75
2021/09/17 06:00:13;;;;;;;1.60;1.50;;;;;;;;;;5093919;28;20028;-75
2021/09/17 06:02:39;;;;;;;2.90;2.10;;;;;;;;;;5095082;28;20069;-75
2021/09/17 06:05:05;;;;;;;2.10;1.90;;;;;;;;;;5095269;28;20028;-75
2021/09/17 06:07:31;;;;;;;1.63;1.52;;;;;;;;;;5094691;28;20035;-76
2021/09/17 06:09:57;;;;;;;2.10;1.75;;;;;;;;;;5093996;28;20111;-76
2021/09/17 06:12:23;;;;;;;2.35;1.60;;;;;;;;;;5094156;28;20035;-75
2021/09/17 06:14:50;;;;;;;1.38;1.27;;;;;;;;;;5095139;28;20457;-74
2021/09/17 06:17:16;;;;;;;2.40;1.55;;;;;;;;;;5094127;28;20040;-74
2021/09/17 06:19:42;;;;;;;2.45;1.92;;;;;;;;;;5094237;28;20027;-74
2021/09/17 06:22:08;;;;;;;1.50;1.40;;;;;;;;;;5093753;28;20024;-73
2021/09/17 06:24:36;;;;;;;1.50;1.40;;;;;;;;;;5094081;28;20032;-73
2021/09/17 06:27:02;;;;;;;3.08;1.45;;;;;;;;;;5094289;28;20440;-73
2021/09/17 06:29:28;;;;;;;1.85;1.52;;;;;;;;;;5094174;28;20107;-76
2021/09/17 06:31:54;;;;;;;1.45;1.35;;;;;;;;;;5094284;28;20028;-76
2021/09/17 06:34:20;;;;;;;1.50;1.30;;;;;;;;;;5094788;28;20024;-76
2021/09/17 06:36:46;;;;;;;1.73;1.25;;;;;;;;;;5094331;28;20141;-75
2021/09/17 06:39:12;;;;;;;2.15;1.48;;;;;;;;;;5094092;28;20051;-74
2021/09/17 06:41:38;;;;;;;1.58;1.30;;;;;;;;;;5093917;28;20057;-75
2021/09/17 06:44:04;;;;;;;2.38;1.60;;;;;;;;;;5093872;28;20043;-74
2021/09/17 06:46:30;;;;;;;1.55;1.45;;;;;;;;;;5094399;28;20377;-74
2021/09/17 06:48:56;;;;;;;2.95;1.85;;;;;;;;;;5093871;28;20024;-75
2021/09/17 06:51:23;;;;;;;1.80;1.50;;;;;;;;;;5093686;28;20032;-74
2021/09/17 06:53:49;;;;;;;1.38;1.27;;;;;;;;;;5091287;28;20496;-74
2021/09/17 06:56:15;;;;;;;4.20;1.73;;;;;;;;;;5094523;28;20093;-73
2021/09/17 06:58:41;;;;;;;1.90;1.30;;;;;;;;;;5095382;28;20423;-77
2021/09/17 07:01:07;;;;;;;1.25;1.10;;;;;;;;;;5097219;28;20024;-77
2021/09/17 07:03:33;;;;;;;7.82;1.65;;;;;;;;;;5096976;28;20028;-78
2021/09/17 07:05:59;;;;;;;1.50;1.40;;;;;;;;;;5096880;28;20054;-79
2021/09/17 07:08:25;;;;;;;5.93;2.13;;;;;;;;;;5096338;28;20024;-76
2021/09/17 07:10:51;;;;;;;3.28;1.52;;;;;;;;;;5097184;28;20031;-77
2021/09/17 07:13:18;;;;;;;1.98;1.75;;;;;;;;;;5096996;28;20105;-74
2021/09/17 07:15:44;;;;;;;1.70;1.58;;;;;;;;;;5095916;28;20024;-75
2021/09/17 07:18:10;;;;;;;2.03;1.45;;;;;;;;;;5095273;28;20032;-77
2021/09/17 07:20:36;;;;;;;1.98;1.30;;;;;;;;;;5096092;28;20077;-77
2021/09/17 07:23:03;;;;;;;1.40;1.27;;;;;;;;;;5096892;28;20051;-77
2021/09/17 07:25:29;;;;;;;1.70;1.40;;;;;;;;;;5096579;28;20420;-78
2021/09/17 07:27:55;;;;;;;1.75;1.55;;;;;;;;;;5095938;28;20028;-78
2021/09/17 07:30:22;;;;;;;2.58;1.50;;;;;;;;;;5098864;28;20034;-76
2021/09/17 07:32:48;;;;;;;2.03;1.83;;;;;;;;;;5101005;28;20021;-78
2021/09/17 07:35:14;;;;;;;1.40;1.25;;;;;;;;;;5100063;28;20370;-77
2021/09/17 07:37:41;;;;;;;2.30;1.30;;;;;;;;;;5101257;28;20071;-75
2021/09/17 07:40:07;;;;;;;1.90;1.58;;;;;;;;;;5098498;28;20073;-75
2021/09/17 07:42:33;;;;;;;2.45;1.63;;;;;;;;;;5098383;28;20028;-75
2021/09/17 07:44:59;;;;;;;1.58;1.35;;;;;;;;;;5099264;28;20035;-77
2021/09/17 07:47:25;;;;;;;2.13;1.75;;;;;;;;;;5100230;28;20054;-87
2021/09/17 07:49:51;;;;;;;1.48;1.38;;;;;;;;;;5101487;28;20024;-82
2021/09/17 07:52:18;;;;;;;2.83;1.48;;;;;;;;;;5100559;28;20021;-84
2021/09/17 07:54:44;;;;;;;3.00;1.67;;;;;;;;;;5100923;28;20020;-88
2021/09/17 07:57:10;;;;;;;3.45;1.67;;;;;;;;;;5101295;28;20452;-86
2021/09/17 07:59:36;;;;;;;1.70;1.60;;;;;;;;;;5100957;28;20028;-84
2021/09/17 08:02:02;;;;;;;2.10;1.63;;;;;;;;;;5100886;28;20078;-83
2021/09/17 08:04:28;;;;;;;2.63;1.73;;;;;;;;;;5100895;28;20030;-83
2021/09/17 08:06:54;;;;;;;1.63;1.42;;;;;;;;;;5101007;28;20028;-82
2021/09/17 08:09:20;;;;;;;2.15;1.95;;;;;;;;;;5100756;28;20016;-83
2021/09/17 08:11:46;;;;;;;11.43;3.03;;;;;;;;;;5100908;28;20060;-81
2021/09/17 08:14:13;;;;;;;2.30;1.85;;;;;;;;;;5100423;28;20024;-81
2021/09/17 08:16:39;;;;;;;2.00;1.80;;;;;;;;;;5100522;28;20028;-79
2021/09/17 08:19:05;;;;;;;2.05;1.30;;;;;;;;;;5100870;28;20477;-88
2021/09/17 08:21:31;;;;;;;4.57;1.60;;;;;;;;;;5099998;28;20035;-80
2021/09/17 08:23:57;;;;;;;1.70;1.60;;;;;;;;;;5100353;28;20024;-85
2021/09/17 08:26:23;;;;;;;2.05;1.90;;;;;;;;;;5100501;28;20038;-78
2021/09/17 08:28:49;;;;;;;2.42;2.15;;;;;;;;;;5100578;28;20062;-81
2021/09/17 08:31:15;;;;;;;1.92;1.60;;;;;;;;;;5100426;28;20470;-82
2021/09/17 08:33:42;;;;;;;3.63;1.88;;;;;;;;;;5100366;28;20024;-77
2021/09/17 08:36:09;;;;;;;1.42;1.33;;;;;;;;;;5100743;28;20058;-86
2021/09/17 08:38:37;;;;;;;2.55;2.05;;;;;;;;;;5100091;28;20082;-85
2021/09/17 08:41:03;;;;;;;2.15;1.90;;;;;;;;;;5099581;28;20028;-80
2021/09/17 08:43:29;;;;;;;1.80;1.70;;;;;;;;;;5100073;28;20119;-79
2021/09/17 08:45:56;;;;;;;2.97;1.73;;;;;;;;;;5099734;28;20080;-82
2021/09/17 08:48:25;;;;;;;2.97;1.98;;;;;;;;;;5100245;28;20028;-78
2021/09/17 08:50:51;;;;;;;2.25;1.88;;;;;;;;;;5100104;28;20027;-83
2021/09/17 08:53:17;;;;;;;1.98;1.52;;;;;;;;;;5099640;28;20020;-81
2021/09/17 08:55:46;;;;;;;4.30;1.75;;;;;;;;;;5099869;28;20052;-81
2021/09/17 08:58:12;;;;;;;2.42;2.10;;;;;;;;;;5099583;28;20044;-83
2021/09/17 09:00:38;;;;;;;1.83;1.63;;;;;;;;;;5100095;28;20465;-81
2021/09/17 09:03:09;;;;;;;4.70;1.90;;;;;;;;;;5099833;28;20035;-79
2021/09/17 09:05:35;;;;;;;5.75;2.22;;;;;;;;;;5099722;28;20016;-92
2021/09/17 09:08:01;;;;;;;1.95;1.75;;;;;;;;;;5100337;28;20036;-88
2021/09/17 09:10:27;;;;;;;1.75;1.65;;;;;;;;;;5099542;28;20020;-89
2021/09/17 09:12:54;;;;;;;1.73;1.63;;;;;;;;;;5100534;28;20031;-93
2021/09/17 09:15:24;;;;;;;2.25;2.05;;;;;;;;;;5100125;28;20032;-87
2021/09/17 09:17:51;;;;;;;1.70;1.60;;;;;;;;;;5098423;28;20031;-81
2021/09/17 09:20:21;;;;;;;17.15;2.10;;;;;;;;;;5099076;28;20048;-85
2021/09/17 09:23:02;;;;;;;1.70;1.60;;;;;;;;;;5099913;28;20028;-88
2021/09/17 09:25:28;;;;;;;2.53;2.15;;;;;;;;;;5099263;28;20070;-84
2021/09/17 09:27:55;;;;;;;2.05;1.90;;;;;;;;;;5097989;28;20374;-81
2021/09/17 09:30:30;;;;;;;1.80;1.70;;;;;;;;;;5097987;28;20028;-83
2021/09/17 09:32:56;;;;;;;3.20;2.10;;;;;;;;;;5099002;28;20034;-83
2021/09/17 09:35:22;;;;;;;2.15;1.70;;;;;;;;;;5099291;28;20057;-84
2021/09/17 09:37:48;;;;;;;2.03;1.83;;;;;;;;;;5099223;28;20039;-82
2021/09/17 09:40:17;;;;;;;2.20;1.95;;;;;;;;;;5098490;28;20020;-80
2021/09/17 09:42:44;;;;;;;2.10;1.90;;;;;;;;;;5097426;28;20024;-81
2021/09/17 09:45:13;;;;;;;2.05;1.65;;;;;;;;;;5098722;28;20401;-86
2021/09/17 09:47:39;;;;;;;3.83;2.33;;;;;;;;;;5098206;28;20028;-77
2021/09/17 09:50:11;;;;;;;1.95;1.77;;;;;;;;;;5097175;28;20054;-79
2021/09/17 09:52:37;;;;;;;2.85;1.60;;;;;;;;;;5096737;28;20547;-78
2021/09/17 09:55:05;;;;;;;2.42;1.80;;;;;;;;;;5098174;28;20104;-81
2021/09/17 09:57:32;;;;;;;3.10;2.05;;;;;;;;;;5098357;28;20028;-84
2021/09/17 09:59:59;;;;;;;4.45;1.85;;;;;;;;;;5098347;28;20026;-85
2021/09/17 10:02:26;;;;;;;5.93;1.92;;;;;;;;;;5099279;28;20020;-85
2021/09/17 10:04:53;;;;;;;7.28;2.40;;;;;;;;;;5098209;28;20028;-85
2021/09/17 10:07:22;;;;;;;2.35;1.90;;;;;;;;;;5098363;28;20430;-91
2021/09/17 10:09:48;;;;;;;2.60;2.13;;;;;;;;;;5098294;28;20135;-88
2021/09/17 10:12:14;;;;;;;4.05;2.35;;;;;;;;;;5098285;28;20024;-86
2021/09/17 10:14:41;;;;;;;7.60;2.80;;;;;;;;;;5097601;28;20034;-87
2021/09/17 10:17:10;;;;;;;4.78;3.15;;;;;;;;;;5098297;28;20032;-88
2021/09/17 10:19:36;;;;;;;10.57;2.80;;;;;;;;;;5098205;28;20028;-83
2021/09/17 10:22:03;;;;;;;3.72;3.10;;;;;;;;;;5098032;28;20024;-88
2021/09/17 10:24:30;;;;;;;3.55;3.13;;;;;;;;;;5098367;28;20027;-82
2021/09/17 10:26:56;;;;;;;3.70;2.65;;;;;;;;;;5097670;28;20043;-86
2021/09/17 10:29:31;;;;;;;7.57;3.55;;;;;;;;;;5097353;28;20020;-85
2021/09/17 10:32:00;;;;;;;2.72;2.53;;;;;;;;;;5097530;28;20099;-84
2021/09/17 10:34:42;;;;;;;9.40;3.05;;;;;;;;;;5097765;28;20030;-87
2021/09/17 10:37:09;;;;;;;3.75;2.97;;;;;;;;;;5097846;28;20028;-82
2021/09/17 10:39:35;;;;;;;6.63;4.03;;;;;;;;;;5095496;28;20553;-76
2021/09/17 10:42:17;;;;;;;4.45;4.05;;;;;;;;;;5094633;28;20055;-75
2021/09/17 10:45:03;;;;;;;7.90;4.30;;;;;;;;;;5095105;28;20024;-75
2021/09/17 10:47:54;;;;;;;3.58;3.15;;;;;;;;;;5094238;28;20028;-76
2021/09/17 10:50:21;;;;;;;7.47;3.33;;;;;;;;;;5094286;28;20537;-77
2021/09/17 10:52:50;;;;;;;4.22;3.83;;;;;;;;;;5095437;28;20021;-76
2021/09/17 10:55:36;;;;;;;9.73;3.80;;;;;;;;;;5095985;28;20028;-81
2021/09/17 10:58:24;;;;;;;4.05;3.65;;;;;;;;;;5096271;28;20070;-82
2021/09/17 11:00:52;;;;;;;3.40;3.10;;;;;;;;;;5095850;28;20032;-81
2021/09/17 11:03:38;;;;;;;7.47;4.10;;;;;;;;;;5096924;28;20081;-86
2021/09/17 11:06:26;;;;;;;4.65;4.15;;;;;;;;;;5096303;28;20028;-87
2021/09/17 11:08:53;;;;;;;4.85;4.22;;;;;;;;;;5096224;28;20019;-86
2021/09/17 11:11:23;;;;;;;4.47;4.07;;;;;;;;;;5096853;28;20393;-90
2021/09/17 11:13:50;;;;;;;4.82;4.38;;;;;;;;;;5097365;28;20461;-94
2021/09/17 11:16:18;;;;;;;7.13;4.40;;;;;;;;;;5096613;28;20507;-83
2021/09/17 11:19:05;;;;;;;4.50;4.05;;;;;;;;;;5096590;28;20032;-83
2021/09/17 11:21:32;;;;;;;4.95;4.45;;;;;;;;;;5095441;28;20024;-78
2021/09/17 11:23:58;;;;;;;5.68;5.18;;;;;;;;;;5095789;28;20051;-79
2021/09/17 11:26:25;;;;;;;3.75;3.45;;;;;;;;;;5094583;28;20024;-82
2021/09/17 11:29:07;;;;;;;6.60;4.38;;;;;;;;;;5095704;28;20027;-87
2021/09/17 11:31:34;;;;;;;;;;;;;;;;;;5097986;28;20028;-84
2021/09/17 11:34:01;;;;;;;8.07;4.18;;;;;;;;;;5096654;28;19911;-85
2021/09/17 11:36:37;;;;;;;5.15;4.18;;;;;;;;;;5097124;28;20032;-82
2021/09/17 11:39:23;;;;;;;4.90;4.25;;;;;;;;;;5096045;28;20062;-82
2021/09/17 11:41:51;;;;;;;6.55;4.78;;;;;;;;;;5095613;28;20082;-85
2021/09/17 11:44:37;;;;;;;6.35;4.43;;;;;;;;;;5095224;28;20107;-86
2021/09/17 11:47:04;;;;;;;6.80;5.05;;;;;;;;;;5096390;28;20028;-85
2021/09/17 11:49:31;;;;;;;6.10;5.47;;;;;;;;;;5097436;28;20024;-85
2021/09/17 11:51:58;;;;;;;5.63;5.00;;;;;;;;;;5096688;28;20050;-85
2021/09/17 11:54:24;;;;;;;5.53;4.95;;;;;;;;;;5095528;28;20081;-82
2021/09/17 11:56:59;;;;;;;6.18;4.45;;;;;;;;;;5096681;28;20401;-83
2021/09/17 11:59:32;;;;;;;4.05;3.70;;;;;;;;;;5096628;28;20068;-82
2021/09/17 12:02:16;;;;;;;4.90;4.47;;;;;;;;;;5097369;28;20039;-84
2021/09/17 12:04:43;;;;;;;4.97;4.47;;;;;;;;;;5096404;28;20132;-90
2021/09/17 12:07:10;;;;;;;5.55;5.10;;;;;;;;;;5097440;28;20035;-87
2021/09/17 12:09:36;;;;;;;6.65;5.32;;;;;;;;;;5096935;28;20028;-82
2021/09/17 12:12:02;;;;;;;6.18;5.68;;;;;;;;;;5096235;28;20040;-82
2021/09/17 12:14:28;;;;;;;4.43;4.10;;;;;;;;;;5096621;28;20024;-83
2021/09/17 12:17:01;;;;;;;4.97;4.45;;;;;;;;;;5099448;28;20032;-83
2021/09/17 12:19:28;;;;;;;4.88;4.47;;;;;;;;;;5100641;28;20028;-84
2021/09/17 12:22:01;;;;;;;5.28;4.80;;;;;;;;;;5099511;28;20497;-85
2021/09/17 12:24:27;;;;;;;5.35;4.90;;;;;;;;;;5096125;28;20020;-80
2021/09/17 12:26:54;;;;;;;6.78;5.63;;;;;;;;;;5100148;28;20039;-81
2021/09/17 12:29:20;;;;;;;6.45;5.55;;;;;;;;;;5100511;28;20500;-86
2021/09/17 12:31:46;;;;;;;5.13;4.63;;;;;;;;;;5100338;28;20036;-80
2021/09/17 12:34:14;;;;;;;5.35;4.95;;;;;;;;;;5098424;28;20916;-80
2021/09/17 12:36:40;;;;;;;5.82;5.28;;;;;;;;;;5100413;28;20032;-84
2021/09/17 12:39:07;;;;;;;6.07;5.47;;;;;;;;;;5100168;28;20024;-84
2021/09/17 12:41:33;;;;;;;6.47;5.97;;;;;;;;;;5100061;28;20027;-80
2021/09/17 12:44:07;;;;;;;6.25;5.65;;;;;;;;;;5098329;28;20024;-80
2021/09/17 12:46:34;;;;;;;7.20;5.05;;;;;;;;;;5099148;28;20036;-84
2021/09/17 12:49:01;;;;;;;7.18;6.45;;;;;;;;;;5099910;28;20078;-85
2021/09/17 12:51:27;;;;;;;5.20;4.70;;;;;;;;;;5100132;28;20038;-83
2021/09/17 12:53:58;;;;;;;6.40;5.88;;;;;;;;;;5098366;28;20059;-83
2021/09/17 12:56:24;;;;;;;6.53;6.03;;;;;;;;;;5099030;28;20079;-87
2021/09/17 12:59:05;;;;;;;5.80;4.93;;;;;;;;;;5098852;28;20389;-86
2021/09/17 13:01:31;;;;;;;5.22;4.82;;;;;;;;;;5099920;28;20024;-90
2021/09/17 13:03:58;;;;;;;5.53;5.03;;;;;;;;;;5095220;28;20699;-80
2021/09/17 13:06:24;;;;;;;5.97;5.50;;;;;;;;;;5100003;28;20381;-80
2021/09/17 13:08:50;;;;;;;6.32;5.72;;;;;;;;;;5099027;28;20020;-81
2021/09/17 13:11:16;;;;;;;6.85;6.25;;;;;;;;;;5099896;28;20038;-78
2021/09/17 13:13:43;;;;;;;6.70;6.10;;;;;;;;;;5096642;28;20123;-81
2021/09/17 13:16:10;;;;;;;5.80;5.30;;;;;;;;;;5098372;28;20381;-77
2021/09/17 13:18:37;;;;;;;9.05;8.25;;;;;;;;;;5096915;28;20020;-76
2021/09/17 13:21:03;;;;;;;7.47;6.88;;;;;;;;;;5093670;28;20028;-72
2021/09/17 13:23:29;;;;;;;16.23;6.47;;;;;;;;;;5095295;28;20020;-72
2021/09/17 13:25:55;;;;;;;7.35;6.65;;;;;;;;;;5096128;28;20032;-71
2021/09/17 13:28:21;;;;;;;14.68;7.95;;;;;;;;;;5095231;28;20061;-71
2021/09/17 13:30:47;;;;;;;8.50;6.60;;;;;;;;;;5094126;28;20028;-72
2021/09/17 13:33:15;;;;;;;7.25;6.50;;;;;;;;;;5094060;28;20155;-74
2021/09/17 13:35:43;;;;;;;8.63;7.93;;;;;;;;;;5095734;28;20090;-73
2021/09/17 13:38:09;;;;;;;7.90;7.20;;;;;;;;;;5094954;28;20058;-75
2021/09/17 13:40:35;;;;;;;8.25;7.57;;;;;;;;;;5095528;28;20031;-76
2021/09/17 13:43:01;;;;;;;12.65;7.57;;;;;;;;;;5093990;28;20050;-74
2021/09/17 13:45:27;;;;;;;7.65;6.90;;;;;;;;;;5095769;28;20027;-74
2021/09/17 13:47:54;;;;;;;8.57;7.00;;;;;;;;;;5095078;28;20062;-76
2021/09/17 13:50:21;;;;;;;7.72;7.10;;;;;;;;;;5095687;28;20111;-75
2021/09/17 13:52:48;;;;;;;8.77;7.88;;;;;;;;;;5095173;28;20053;-73
2021/09/17 13:55:14;;;;;;;7.82;6.25;;;;;;;;;;5093909;28;20028;-72
2021/09/17 13:57:41;;;;;;;9.75;8.88;;;;;;;;;;5095352;28;20123;-73
2021/09/17 14:00:08;;;;;;;7.55;6.93;;;;;;;;;;5094702;28;20060;-72
2021/09/17 14:02:34;;;;;;;8.60;7.70;;;;;;;;;;5094864;28;20020;-72
2021/09/17 14:05:04;;;;;;;8.82;8.10;;;;;;;;;;5093723;28;20473;-72
2021/09/17 14:07:30;;;;;;;7.90;5.55;;;;;;;;;;5095018;28;20020;-72
2021/09/17 14:09:56;;;;;;;7.07;6.55;;;;;;;;;;5094408;28;20423;-75
2021/09/17 14:12:22;;;;;;;6.72;6.05;;;;;;;;;;5094738;28;20028;-72
2021/09/17 14:14:48;;;;;;;7.65;6.43;;;;;;;;;;5093672;28;20037;-75
2021/09/17 14:17:14;;;;;;;6.65;6.18;;;;;;;;;;5094472;28;20050;-75
2021/09/17 14:19:40;;;;;;;7.85;7.25;;;;;;;;;;5094858;28;20482;-71
2021/09/17 14:22:07;;;;;;;7.72;7.03;;;;;;;;;;5093373;28;20028;-72
2021/09/17 14:24:34;;;;;;;10.18;9.32;;;;;;;;;;5090762;28;20020;-73
2021/09/17 14:27:01;;;;;;;6.63;6.05;;;;;;;;;;5093153;28;20059;-75
2021/09/17 14:29:27;;;;;;;7.28;6.20;;;;;;;;;;5093815;28;20134;-76
2021/09/17 14:31:53;;;;;;;12.27;7.05;;;;;;;;;;5092125;28;20020;-76
2021/09/17 14:34:19;;;;;;;6.68;6.07;;;;;;;;;;5095618;28;20035;-74
2021/09/17 14:36:45;;;;;;;7.05;5.18;;;;;;;;;;5094098;28;20381;-74
2021/09/17 14:39:13;;;;;;;6.35;5.68;;;;;;;;;;5094961;28;20064;-73
2021/09/17 14:41:39;;;;;;;9.98;5.88;;;;;;;;;;5096480;28;20051;-76
2021/09/17 14:44:05;;;;;;;6.95;6.05;;;;;;;;;;5095710;28;20024;-74